sensor_id;sensor_type;location;lat;lon;timestamp;P1;durP1;ratioP1;P2;durP2;ratioP2
15500;SDS011;7852;52.228;5.990;2022-08-01T00:04:59;4;;;2.8;;
15500;SDS011;7852;52.228;5.990;2022-08-01T00:04:59;4.3;;;2.8;;
15500;SDS011;7852;52.228;5.990;2022-08-01T00:05:05;3.9;;;2.7;;
15500;SDS011;7852;52.228;5.990;2022-08-01T00:05:05;3.5;;;2.7;;
15500;SDS011;7852;52.228;5.990;2022-08-01T00:05:17;6.8;;;2.8;;
15500;SDS011;7852;52.228;5.990;2022-08-01T00:06:17;3.8;;;2.9;;
15500;SDS011;7852;52.228;5.990;2022-08-01T00:07:17;4.9;;;2.7;;
15500;SDS011;7852;52.228;5.990;2022-08-01T00:08:17;3.7;;;2.9;;
15500;SDS011;7852;52.228;5.990;2022-08-01T00:09:17;4.8;;;2.9;;
15500;SDS011;7852;52.228;5.990;2022-08-01T00:10:17;3.4;;;2.3;;
15500;SDS011;7852;52.228;5.990;2022-08-01T00:11:17;4.5;;;2.8;;
15500;SDS011;7852;52.228;5.990;2022-08-01T00:12:17;4.2;;;2.9;;
15500;SDS011;7852;52.228;5.990;2022-08-01T00:13:17;4.6;;;3.2;;
15500;SDS011;7852;52.228;5.990;2022-08-01T00:14:17;6.2;;;3.1;;
15500;SDS011;7852;52.228;5.990;2022-08-01T00:15:18;5.9;;;3;;
15500;SDS011;7852;52.228;5.990;2022-08-01T00:16:17;5.8;;;3.3;;
15500;SDS011;7852;52.228;5.990;2022-08-01T00:17:17;5.8;;;3.4;;
15500;SDS011;7852;52.228;5.990;2022-08-01T00:18:17;5.2;;;3.4;;
15500;SDS011;7852;52.228;5.990;2022-08-01T00:19:17;5.1;;;3.4;;
15500;SDS011;7852;52.228;5.990;2022-08-01T00:20:17;4.8;;;3.2;;
15500;SDS011;7852;52.228;5.990;2022-08-01T00:21:17;6.8;;;3.3;;
15500;SDS011;7852;52.228;5.990;2022-08-01T00:22:17;5.4;;;3.1;;
15500;SDS011;7852;52.228;5.990;2022-08-01T00:23:17;6.3;;;3.3;;
15500;SDS011;7852;52.228;5.990;2022-08-01T00:24:17;5.8;;;2.9;;
15500;SDS011;7852;52.228;5.990;2022-08-01T00:25:17;5.4;;;3;;
15500;SDS011;7852;52.228;5.990;2022-08-01T00:26:17;5.7;;;3.3;;
15500;SDS011;7852;52.228;5.990;2022-08-01T00:27:17;5.7;;;3;;
15500;SDS011;7852;52.228;5.990;2022-08-01T00:28:17;7.7;;;3.3;;
15500;SDS011;7852;52.228;5.990;2022-08-01T00:29:17;6.1;;;3.4;;
15500;SDS011;7852;52.228;5.990;2022-08-01T00:30:17;4.2;;;3.1;;
15500;SDS011;7852;52.228;5.990;2022-08-01T00:31:17;5.5;;;3.5;;
15500;SDS011;7852;52.228;5.990;2022-08-01T00:32:17;5;;;2.9;;
15500;SDS011;7852;52.228;5.990;2022-08-01T00:33:17;3.6;;;2.6;;
15500;SDS011;7852;52.228;5.990;2022-08-01T00:34:17;5.7;;;2.8;;
15500;SDS011;7852;52.228;5.990;2022-08-01T00:35:17;4.1;;;3;;
15500;SDS011;7852;52.228;5.990;2022-08-01T00:36:17;4.2;;;3;;
15500;SDS011;7852;52.228;5.990;2022-08-01T00:37:17;5.8;;;2.8;;
15500;SDS011;7852;52.228;5.990;2022-08-01T00:38:17;6.4;;;3.1;;
15500;SDS011;7852;52.228;5.990;2022-08-01T00:39:17;5.3;;;3.2;;
15500;SDS011;7852;52.228;5.990;2022-08-01T00:40:17;4.3;;;2.8;;
15500;SDS011;7852;52.228;5.990;2022-08-01T00:41:17;4.8;;;2.9;;
15500;SDS011;7852;52.228;5.990;2022-08-01T00:42:17;4.6;;;2.6;;
15500;SDS011;7852;52.228;5.990;2022-08-01T00:43:17;4.4;;;2.8;;
15500;SDS011;7852;52.228;5.990;2022-08-01T00:44:17;4.2;;;2.7;;
15500;SDS011;7852;52.228;5.990;2022-08-01T00:45:17;5.2;;;2.8;;
15500;SDS011;7852;52.228;5.990;2022-08-01T00:46:17;5.1;;;3;;
15500;SDS011;7852;52.228;5.990;2022-08-01T00:47:17;4.8;;;2.7;;
15500;SDS011;7852;52.228;5.990;2022-08-01T00:48:17;4.8;;;2.5;;
15500;SDS011;7852;52.228;5.990;2022-08-01T00:49:17;4.1;;;2.8;;
15500;SDS011;7852;52.228;5.990;2022-08-01T00:50:17;6;;;2.4;;
15500;SDS011;7852;52.228;5.990;2022-08-01T00:51:17;5.5;;;2.7;;
15500;SDS011;7852;52.228;5.990;2022-08-01T00:52:17;4.8;;;2.8;;
15500;SDS011;7852;52.228;5.990;2022-08-01T00:53:17;4.2;;;2.9;;
15500;SDS011;7852;52.228;5.990;2022-08-01T00:54:17;5;;;2.7;;
15500;SDS011;7852;52.228;5.990;2022-08-01T00:55:17;4;;;2.6;;
15500;SDS011;7852;52.228;5.990;2022-08-01T00:56:17;4.7;;;2.6;;
15500;SDS011;7852;52.228;5.990;2022-08-01T00:57:17;5.4;;;3;;
15500;SDS011;7852;52.228;5.990;2022-08-01T00:58:17;4.5;;;2.7;;
15500;SDS011;7852;52.228;5.990;2022-08-01T00:59:17;5.2;;;2.8;;
15500;SDS011;7852;52.228;5.990;2022-08-01T01:00:17;6.2;;;2.7;;
15500;SDS011;7852;52.228;5.990;2022-08-01T01:01:17;4.3;;;3.1;;
15500;SDS011;7852;52.228;5.990;2022-08-01T01:02:17;4.9;;;2.8;;
15500;SDS011;7852;52.228;5.990;2022-08-01T01:03:17;6.2;;;2.7;;
15500;SDS011;7852;52.228;5.990;2022-08-01T01:04:17;4;;;3;;
15500;SDS011;7852;52.228;5.990;2022-08-01T01:05:17;5.7;;;3;;
15500;SDS011;7852;52.228;5.990;2022-08-01T01:06:36;3.9;;;2.5;;
15500;SDS011;7852;52.228;5.990;2022-08-01T01:07:19;5.7;;;2.9;;
15500;SDS011;7852;52.228;5.990;2022-08-01T01:08:19;5.1;;;2.6;;
15500;SDS011;7852;52.228;5.990;2022-08-01T01:09:21;4.7;;;2.6;;
15500;SDS011;7852;52.228;5.990;2022-08-01T01:10:19;5.4;;;2.9;;
15500;SDS011;7852;52.228;5.990;2022-08-01T01:11:19;4.8;;;2.8;;
15500;SDS011;7852;52.228;5.990;2022-08-01T01:12:19;5.2;;;2.9;;
15500;SDS011;7852;52.228;5.990;2022-08-01T01:13:18;4.8;;;3.4;;
15500;SDS011;7852;52.228;5.990;2022-08-01T01:14:20;5.1;;;2.6;;
15500;SDS011;7852;52.228;5.990;2022-08-01T01:15:18;6.6;;;2.9;;
15500;SDS011;7852;52.228;5.990;2022-08-01T01:16:18;5.2;;;2.7;;
15500;SDS011;7852;52.228;5.990;2022-08-01T01:17:19;5.2;;;3.1;;
15500;SDS011;7852;52.228;5.990;2022-08-01T01:18:19;4.8;;;2.8;;
15500;SDS011;7852;52.228;5.990;2022-08-01T01:19:20;5.4;;;2.8;;
15500;SDS011;7852;52.228;5.990;2022-08-01T01:20:17;5;;;3.1;;
15500;SDS011;7852;52.228;5.990;2022-08-01T01:21:26;6.2;;;3.1;;
15500;SDS011;7852;52.228;5.990;2022-08-01T01:22:20;4.7;;;2.7;;
15500;SDS011;7852;52.228;5.990;2022-08-01T01:23:23;5.2;;;3.1;;
15500;SDS011;7852;52.228;5.990;2022-08-01T01:24:21;5.4;;;3.2;;
15500;SDS011;7852;52.228;5.990;2022-08-01T01:25:19;5.8;;;2.9;;
15500;SDS011;7852;52.228;5.990;2022-08-01T01:26:21;4.3;;;2.6;;
15500;SDS011;7852;52.228;5.990;2022-08-01T01:27:18;4.5;;;2.4;;
15500;SDS011;7852;52.228;5.990;2022-08-01T01:28:20;5.5;;;2.9;;
15500;SDS011;7852;52.228;5.990;2022-08-01T01:29:18;4.5;;;3;;
15500;SDS011;7852;52.228;5.990;2022-08-01T01:30:17;5.4;;;2.8;;
15500;SDS011;7852;52.228;5.990;2022-08-01T01:31:17;5.2;;;2.9;;
15500;SDS011;7852;52.228;5.990;2022-08-01T01:32:18;5.5;;;2.9;;
15500;SDS011;7852;52.228;5.990;2022-08-01T01:33:17;5.6;;;3.2;;
15500;SDS011;7852;52.228;5.990;2022-08-01T01:34:18;5.2;;;3.3;;
15500;SDS011;7852;52.228;5.990;2022-08-01T01:35:19;5.8;;;3.1;;
15500;SDS011;7852;52.228;5.990;2022-08-01T01:36:17;4.4;;;3;;
15500;SDS011;7852;52.228;5.990;2022-08-01T01:37:17;5.6;;;3.1;;
15500;SDS011;7852;52.228;5.990;2022-08-01T01:38:18;6.1;;;3.2;;
15500;SDS011;7852;52.228;5.990;2022-08-01T01:39:17;5.8;;;3.3;;
15500;SDS011;7852;52.228;5.990;2022-08-01T01:40:17;4.8;;;3.3;;
15500;SDS011;7852;52.228;5.990;2022-08-01T01:41:17;6.3;;;2.8;;
15500;SDS011;7852;52.228;5.990;2022-08-01T01:42:17;6;;;3.3;;
15500;SDS011;7852;52.228;5.990;2022-08-01T01:43:17;6.2;;;3.3;;
15500;SDS011;7852;52.228;5.990;2022-08-01T01:44:17;4.8;;;2.8;;
15500;SDS011;7852;52.228;5.990;2022-08-01T01:45:17;5.7;;;3.1;;
15500;SDS011;7852;52.228;5.990;2022-08-01T01:46:18;4.5;;;2.9;;
15500;SDS011;7852;52.228;5.990;2022-08-01T01:47:17;5.4;;;3.1;;
15500;SDS011;7852;52.228;5.990;2022-08-01T01:48:18;6.8;;;3.1;;
15500;SDS011;7852;52.228;5.990;2022-08-01T01:49:18;4.9;;;2.9;;
15500;SDS011;7852;52.228;5.990;2022-08-01T01:50:17;4.5;;;3;;
15500;SDS011;7852;52.228;5.990;2022-08-01T01:51:17;5.1;;;2.8;;
15500;SDS011;7852;52.228;5.990;2022-08-01T01:52:17;4.2;;;2.8;;
15500;SDS011;7852;52.228;5.990;2022-08-01T01:53:18;5.5;;;3.1;;
15500;SDS011;7852;52.228;5.990;2022-08-01T01:54:17;4.8;;;3;;
15500;SDS011;7852;52.228;5.990;2022-08-01T01:55:17;4.9;;;3;;
15500;SDS011;7852;52.228;5.990;2022-08-01T01:56:17;5.4;;;2.8;;
15500;SDS011;7852;52.228;5.990;2022-08-01T01:57:18;4.7;;;3;;
15500;SDS011;7852;52.228;5.990;2022-08-01T01:58:17;4.5;;;3;;
15500;SDS011;7852;52.228;5.990;2022-08-01T01:59:18;3.2;;;2.2;;
15500;SDS011;7852;52.228;5.990;2022-08-01T02:00:17;3.7;;;2.1;;
15500;SDS011;7852;52.228;5.990;2022-08-01T02:01:17;3.7;;;2.3;;
15500;SDS011;7852;52.228;5.990;2022-08-01T02:02:17;3.3;;;2;;
15500;SDS011;7852;52.228;5.990;2022-08-01T02:03:17;3.4;;;2.2;;
15500;SDS011;7852;52.228;5.990;2022-08-01T02:04:17;4.1;;;2.2;;
15500;SDS011;7852;52.228;5.990;2022-08-01T02:05:17;4.6;;;2.1;;
15500;SDS011;7852;52.228;5.990;2022-08-01T02:06:17;3.7;;;2.3;;
15500;SDS011;7852;52.228;5.990;2022-08-01T02:07:19;3.7;;;2.2;;
15500;SDS011;7852;52.228;5.990;2022-08-01T02:08:17;3.1;;;2.2;;
15500;SDS011;7852;52.228;5.990;2022-08-01T02:09:17;4;;;2.4;;
15500;SDS011;7852;52.228;5.990;2022-08-01T02:10:17;3.4;;;1.9;;
15500;SDS011;7852;52.228;5.990;2022-08-01T02:11:17;2.8;;;1.9;;
15500;SDS011;7852;52.228;5.990;2022-08-01T02:12:17;3.3;;;2.1;;
15500;SDS011;7852;52.228;5.990;2022-08-01T02:13:17;3.6;;;2.2;;
15500;SDS011;7852;52.228;5.990;2022-08-01T02:14:18;4.1;;;2.3;;
15500;SDS011;7852;52.228;5.990;2022-08-01T02:15:18;4.6;;;2.3;;
15500;SDS011;7852;52.228;5.990;2022-08-01T02:16:17;3.4;;;2.2;;
15500;SDS011;7852;52.228;5.990;2022-08-01T02:17:17;3.4;;;2.4;;
15500;SDS011;7852;52.228;5.990;2022-08-01T02:18:17;4.3;;;2.2;;
15500;SDS011;7852;52.228;5.990;2022-08-01T02:19:17;2.8;;;2;;
15500;SDS011;7852;52.228;5.990;2022-08-01T02:20:17;4.2;;;2.5;;
15500;SDS011;7852;52.228;5.990;2022-08-01T02:21:19;3.3;;;2.3;;
15500;SDS011;7852;52.228;5.990;2022-08-01T02:22:18;3.6;;;2.4;;
15500;SDS011;7852;52.228;5.990;2022-08-01T02:23:17;4.2;;;2.7;;
15500;SDS011;7852;52.228;5.990;2022-08-01T02:24:19;4;;;2.4;;
15500;SDS011;7852;52.228;5.990;2022-08-01T02:25:19;3.7;;;2.3;;
15500;SDS011;7852;52.228;5.990;2022-08-01T02:26:17;5.3;;;3.1;;
15500;SDS011;7852;52.228;5.990;2022-08-01T02:27:19;4.3;;;2.5;;
15500;SDS011;7852;52.228;5.990;2022-08-01T02:28:19;3.7;;;2.6;;
15500;SDS011;7852;52.228;5.990;2022-08-01T02:29:19;3.8;;;2.4;;
15500;SDS011;7852;52.228;5.990;2022-08-01T02:30:17;5.8;;;2.9;;
15500;SDS011;7852;52.228;5.990;2022-08-01T02:31:19;4.8;;;2.7;;
15500;SDS011;7852;52.228;5.990;2022-08-01T02:32:19;4.8;;;2.4;;
15500;SDS011;7852;52.228;5.990;2022-08-01T02:33:18;4.5;;;2.3;;
15500;SDS011;7852;52.228;5.990;2022-08-01T02:34:17;7;;;2.9;;
15500;SDS011;7852;52.228;5.990;2022-08-01T02:35:18;4.7;;;2.9;;
15500;SDS011;7852;52.228;5.990;2022-08-01T02:36:17;3.9;;;2.8;;
15500;SDS011;7852;52.228;5.990;2022-08-01T02:37:17;4.9;;;2.8;;
15500;SDS011;7852;52.228;5.990;2022-08-01T02:38:18;6;;;3.1;;
15500;SDS011;7852;52.228;5.990;2022-08-01T02:39:17;4.9;;;2.9;;
15500;SDS011;7852;52.228;5.990;2022-08-01T02:40:17;4.9;;;3;;
15500;SDS011;7852;52.228;5.990;2022-08-01T02:41:19;4;;;2.9;;
15500;SDS011;7852;52.228;5.990;2022-08-01T02:42:18;4.9;;;2.9;;
15500;SDS011;7852;52.228;5.990;2022-08-01T02:43:18;4;;;3;;
15500;SDS011;7852;52.228;5.990;2022-08-01T02:44:21;5.5;;;3.3;;
15500;SDS011;7852;52.228;5.990;2022-08-01T02:45:17;5;;;3.3;;
15500;SDS011;7852;52.228;5.990;2022-08-01T02:46:17;5.6;;;3.1;;
15500;SDS011;7852;52.228;5.990;2022-08-01T02:47:17;5.3;;;3;;
15500;SDS011;7852;52.228;5.990;2022-08-01T02:48:17;7.7;;;3.6;;
15500;SDS011;7852;52.228;5.990;2022-08-01T02:49:17;5.4;;;3.4;;
15500;SDS011;7852;52.228;5.990;2022-08-01T02:50:17;7;;;4.2;;
15500;SDS011;7852;52.228;5.990;2022-08-01T02:51:17;6.4;;;4.7;;
15500;SDS011;7852;52.228;5.990;2022-08-01T02:52:17;5;;;3.6;;
15500;SDS011;7852;52.228;5.990;2022-08-01T02:53:18;6.4;;;4.7;;
15500;SDS011;7852;52.228;5.990;2022-08-01T02:54:17;8.9;;;5.8;;
15500;SDS011;7852;52.228;5.990;2022-08-01T02:55:19;5.9;;;4.8;;
15500;SDS011;7852;52.228;5.990;2022-08-01T02:56:17;7;;;3.8;;
15500;SDS011;7852;52.228;5.990;2022-08-01T02:57:17;5.5;;;3.7;;
15500;SDS011;7852;52.228;5.990;2022-08-01T02:58:18;5.7;;;3.8;;
15500;SDS011;7852;52.228;5.990;2022-08-01T02:59:18;5.5;;;3.6;;
15500;SDS011;7852;52.228;5.990;2022-08-01T03:00:17;5.5;;;3.4;;
15500;SDS011;7852;52.228;5.990;2022-08-01T03:01:17;5.2;;;3;;
15500;SDS011;7852;52.228;5.990;2022-08-01T03:02:17;7;;;3.3;;
15500;SDS011;7852;52.228;5.990;2022-08-01T03:03:17;4.7;;;3.1;;
15500;SDS011;7852;52.228;5.990;2022-08-01T03:04:17;4.5;;;3.1;;
15500;SDS011;7852;52.228;5.990;2022-08-01T03:05:17;5;;;3.2;;
15500;SDS011;7852;52.228;5.990;2022-08-01T03:06:17;5.3;;;3.1;;
15500;SDS011;7852;52.228;5.990;2022-08-01T03:07:17;5.1;;;3.2;;
15500;SDS011;7852;52.228;5.990;2022-08-01T03:08:17;5.7;;;3.1;;
15500;SDS011;7852;52.228;5.990;2022-08-01T03:09:17;4.9;;;3.2;;
15500;SDS011;7852;52.228;5.990;2022-08-01T03:10:17;4.7;;;3.4;;
15500;SDS011;7852;52.228;5.990;2022-08-01T03:11:17;4.3;;;3.5;;
15500;SDS011;7852;52.228;5.990;2022-08-01T03:12:19;6.4;;;3.6;;
15500;SDS011;7852;52.228;5.990;2022-08-01T03:13:17;5.7;;;3.8;;
15500;SDS011;7852;52.228;5.990;2022-08-01T03:14:17;6.7;;;3.5;;
15500;SDS011;7852;52.228;5.990;2022-08-01T03:15:17;5.4;;;3.4;;
15500;SDS011;7852;52.228;5.990;2022-08-01T03:16:17;5.2;;;3.5;;
15500;SDS011;7852;52.228;5.990;2022-08-01T03:17:17;5.6;;;4.3;;
15500;SDS011;7852;52.228;5.990;2022-08-01T03:18:17;7.3;;;6;;
15500;SDS011;7852;52.228;5.990;2022-08-01T03:19:18;5.8;;;5.1;;
15500;SDS011;7852;52.228;5.990;2022-08-01T03:20:17;8.6;;;6.4;;
15500;SDS011;7852;52.228;5.990;2022-08-01T03:21:17;9;;;7;;
15500;SDS011;7852;52.228;5.990;2022-08-01T03:22:17;9;;;7.6;;
15500;SDS011;7852;52.228;5.990;2022-08-01T03:23:17;9.1;;;8.1;;
15500;SDS011;7852;52.228;5.990;2022-08-01T03:24:17;8.7;;;7.8;;
15500;SDS011;7852;52.228;5.990;2022-08-01T03:25:17;8.5;;;6.8;;
15500;SDS011;7852;52.228;5.990;2022-08-01T03:26:17;9.1;;;7.1;;
15500;SDS011;7852;52.228;5.990;2022-08-01T03:27:18;8.6;;;7.6;;
15500;SDS011;7852;52.228;5.990;2022-08-01T03:28:17;9.1;;;7.6;;
15500;SDS011;7852;52.228;5.990;2022-08-01T03:29:18;8.1;;;6.9;;
15500;SDS011;7852;52.228;5.990;2022-08-01T03:30:17;8.3;;;6.8;;
15500;SDS011;7852;52.228;5.990;2022-08-01T03:31:17;6.1;;;5.3;;
15500;SDS011;7852;52.228;5.990;2022-08-01T03:32:17;8;;;5.6;;
15500;SDS011;7852;52.228;5.990;2022-08-01T03:33:17;7.2;;;6.4;;
15500;SDS011;7852;52.228;5.990;2022-08-01T03:34:17;8;;;5.8;;
15500;SDS011;7852;52.228;5.990;2022-08-01T03:35:17;9.6;;;6.4;;
15500;SDS011;7852;52.228;5.990;2022-08-01T03:36:17;7.2;;;5.6;;
15500;SDS011;7852;52.228;5.990;2022-08-01T03:37:19;7.8;;;6.5;;
15500;SDS011;7852;52.228;5.990;2022-08-01T03:38:18;7.2;;;6.3;;
15500;SDS011;7852;52.228;5.990;2022-08-01T03:39:17;9;;;6.8;;
15500;SDS011;7852;52.228;5.990;2022-08-01T03:40:20;7.6;;;5.9;;
15500;SDS011;7852;52.228;5.990;2022-08-01T03:41:18;8.3;;;6.6;;
15500;SDS011;7852;52.228;5.990;2022-08-01T03:42:18;7.5;;;6.7;;
15500;SDS011;7852;52.228;5.990;2022-08-01T03:43:19;8.3;;;6.9;;
15500;SDS011;7852;52.228;5.990;2022-08-01T03:44:22;8.5;;;6.8;;
15500;SDS011;7852;52.228;5.990;2022-08-01T03:45:19;8.8;;;7.1;;
15500;SDS011;7852;52.228;5.990;2022-08-01T03:46:19;9.4;;;7.6;;
15500;SDS011;7852;52.228;5.990;2022-08-01T03:47:17;8.2;;;7.4;;
15500;SDS011;7852;52.228;5.990;2022-08-01T03:48:18;6.8;;;5.7;;
15500;SDS011;7852;52.228;5.990;2022-08-01T03:49:18;5.8;;;4.1;;
15500;SDS011;7852;52.228;5.990;2022-08-01T03:50:19;6.1;;;4.1;;
15500;SDS011;7852;52.228;5.990;2022-08-01T03:51:17;6.2;;;4.7;;
15500;SDS011;7852;52.228;5.990;2022-08-01T03:52:17;7.7;;;4.8;;
15500;SDS011;7852;52.228;5.990;2022-08-01T03:53:18;7.8;;;4.9;;
15500;SDS011;7852;52.228;5.990;2022-08-01T03:54:20;5.5;;;3.9;;
15500;SDS011;7852;52.228;5.990;2022-08-01T03:55:17;6.1;;;4.3;;
15500;SDS011;7852;52.228;5.990;2022-08-01T03:56:17;7.2;;;4.2;;
15500;SDS011;7852;52.228;5.990;2022-08-01T03:57:17;4.9;;;3.6;;
15500;SDS011;7852;52.228;5.990;2022-08-01T03:58:17;4;;;2.9;;
15500;SDS011;7852;52.228;5.990;2022-08-01T03:59:17;4.8;;;3.4;;
15500;SDS011;7852;52.228;5.990;2022-08-01T04:00:17;4;;;2.8;;
15500;SDS011;7852;52.228;5.990;2022-08-01T04:01:17;4.4;;;2.8;;
15500;SDS011;7852;52.228;5.990;2022-08-01T04:02:17;3.6;;;2.8;;
15500;SDS011;7852;52.228;5.990;2022-08-01T04:03:17;4.8;;;2.9;;
15500;SDS011;7852;52.228;5.990;2022-08-01T04:04:17;5.3;;;3.1;;
15500;SDS011;7852;52.228;5.990;2022-08-01T04:05:17;5.9;;;3.1;;
15500;SDS011;7852;52.228;5.990;2022-08-01T04:06:17;4.2;;;2.8;;
15500;SDS011;7852;52.228;5.990;2022-08-01T04:07:21;7.1;;;3;;
15500;SDS011;7852;52.228;5.990;2022-08-01T04:08:17;5.6;;;3.1;;
15500;SDS011;7852;52.228;5.990;2022-08-01T04:09:17;4.8;;;3.1;;
15500;SDS011;7852;52.228;5.990;2022-08-01T04:10:17;4.8;;;3.2;;
15500;SDS011;7852;52.228;5.990;2022-08-01T04:11:17;4.8;;;3.3;;
15500;SDS011;7852;52.228;5.990;2022-08-01T04:12:17;6.7;;;4.4;;
15500;SDS011;7852;52.228;5.990;2022-08-01T04:13:17;6.9;;;5.4;;
15500;SDS011;7852;52.228;5.990;2022-08-01T04:14:17;6.1;;;5;;
15500;SDS011;7852;52.228;5.990;2022-08-01T04:15:17;7.4;;;4.3;;
15500;SDS011;7852;52.228;5.990;2022-08-01T04:16:17;5;;;4;;
15500;SDS011;7852;52.228;5.990;2022-08-01T04:17:17;5;;;3.1;;
15500;SDS011;7852;52.228;5.990;2022-08-01T04:18:17;4.3;;;2.6;;
15500;SDS011;7852;52.228;5.990;2022-08-01T04:19:17;3;;;2.1;;
15500;SDS011;7852;52.228;5.990;2022-08-01T04:20:17;2.8;;;1.2;;
15500;SDS011;7852;52.228;5.990;2022-08-01T04:21:18;2.4;;;1.4;;
15500;SDS011;7852;52.228;5.990;2022-08-01T04:22:17;1.8;;;1.2;;
15500;SDS011;7852;52.228;5.990;2022-08-01T04:23:17;1.2;;;1;;
15500;SDS011;7852;52.228;5.990;2022-08-01T04:24:17;1.9;;;1.1;;
15500;SDS011;7852;52.228;5.990;2022-08-01T04:25:19;1.7;;;1;;
15500;SDS011;7852;52.228;5.990;2022-08-01T04:26:17;1.3;;;0.8;;
15500;SDS011;7852;52.228;5.990;2022-08-01T04:27:19;1.2;;;1;;
15500;SDS011;7852;52.228;5.990;2022-08-01T04:28:17;1.3;;;0.9;;
15500;SDS011;7852;52.228;5.990;2022-08-01T04:29:17;1.2;;;0.9;;
15500;SDS011;7852;52.228;5.990;2022-08-01T04:30:17;2.1;;;1;;
15500;SDS011;7852;52.228;5.990;2022-08-01T04:31:17;2;;;1;;
15500;SDS011;7852;52.228;5.990;2022-08-01T04:32:17;1.5;;;0.8;;
15500;SDS011;7852;52.228;5.990;2022-08-01T04:33:17;1.1;;;1;;
15500;SDS011;7852;52.228;5.990;2022-08-01T04:34:19;1.4;;;1;;
15500;SDS011;7852;52.228;5.990;2022-08-01T04:35:18;1.7;;;1;;
15500;SDS011;7852;52.228;5.990;2022-08-01T04:36:17;1.8;;;0.9;;
15500;SDS011;7852;52.228;5.990;2022-08-01T04:37:17;2;;;1.2;;
15500;SDS011;7852;52.228;5.990;2022-08-01T04:38:19;1.7;;;1.1;;
15500;SDS011;7852;52.228;5.990;2022-08-01T04:39:17;1.9;;;1;;
15500;SDS011;7852;52.228;5.990;2022-08-01T04:40:17;1.8;;;1;;
15500;SDS011;7852;52.228;5.990;2022-08-01T04:41:17;3.3;;;1.5;;
15500;SDS011;7852;52.228;5.990;2022-08-01T04:42:17;1.6;;;1.2;;
15500;SDS011;7852;52.228;5.990;2022-08-01T04:43:17;1.9;;;1.1;;
15500;SDS011;7852;52.228;5.990;2022-08-01T04:44:17;2.2;;;1.1;;
15500;SDS011;7852;52.228;5.990;2022-08-01T04:45:17;1.2;;;1;;
15500;SDS011;7852;52.228;5.990;2022-08-01T04:46:17;1.4;;;1.2;;
15500;SDS011;7852;52.228;5.990;2022-08-01T04:47:17;2;;;1.1;;
15500;SDS011;7852;52.228;5.990;2022-08-01T04:48:17;2;;;1.2;;
15500;SDS011;7852;52.228;5.990;2022-08-01T04:49:17;1.4;;;1.3;;
15500;SDS011;7852;52.228;5.990;2022-08-01T04:50:17;2.3;;;1.4;;
15500;SDS011;7852;52.228;5.990;2022-08-01T04:51:17;1.6;;;1.2;;
15500;SDS011;7852;52.228;5.990;2022-08-01T04:52:17;2;;;1.6;;
15500;SDS011;7852;52.228;5.990;2022-08-01T04:53:18;1.5;;;1.1;;
15500;SDS011;7852;52.228;5.990;2022-08-01T04:54:18;1.4;;;1;;
15500;SDS011;7852;52.228;5.990;2022-08-01T04:55:17;1.3;;;1.1;;
15500;SDS011;7852;52.228;5.990;2022-08-01T04:56:17;1.7;;;0.9;;
15500;SDS011;7852;52.228;5.990;2022-08-01T04:57:17;2.1;;;1.1;;
15500;SDS011;7852;52.228;5.990;2022-08-01T04:58:17;1.9;;;1.2;;
15500;SDS011;7852;52.228;5.990;2022-08-01T04:59:17;2.4;;;1.4;;
15500;SDS011;7852;52.228;5.990;2022-08-01T05:00:17;2.4;;;1.3;;
15500;SDS011;7852;52.228;5.990;2022-08-01T05:01:17;2.3;;;1.1;;
15500;SDS011;7852;52.228;5.990;2022-08-01T05:02:18;1.9;;;1.3;;
15500;SDS011;7852;52.228;5.990;2022-08-01T05:03:17;2.4;;;1.3;;
15500;SDS011;7852;52.228;5.990;2022-08-01T05:04:17;2.1;;;1.2;;
15500;SDS011;7852;52.228;5.990;2022-08-01T05:05:17;2.5;;;1.7;;
15500;SDS011;7852;52.228;5.990;2022-08-01T05:06:17;1.7;;;1.5;;
15500;SDS011;7852;52.228;5.990;2022-08-01T05:07:17;2;;;1.3;;
15500;SDS011;7852;52.228;5.990;2022-08-01T05:08:17;1.5;;;1.3;;
15500;SDS011;7852;52.228;5.990;2022-08-01T05:09:17;2;;;1.4;;
15500;SDS011;7852;52.228;5.990;2022-08-01T05:10:17;2.6;;;1.7;;
15500;SDS011;7852;52.228;5.990;2022-08-01T05:11:17;1.6;;;1.4;;
15500;SDS011;7852;52.228;5.990;2022-08-01T05:12:17;2.8;;;1.7;;
15500;SDS011;7852;52.228;5.990;2022-08-01T05:13:17;2.4;;;1.6;;
15500;SDS011;7852;52.228;5.990;2022-08-01T05:14:17;4.8;;;2;;
15500;SDS011;7852;52.228;5.990;2022-08-01T05:15:17;1.9;;;1.5;;
15500;SDS011;7852;52.228;5.990;2022-08-01T05:16:17;1.8;;;1.4;;
15500;SDS011;7852;52.228;5.990;2022-08-01T05:17:17;3.9;;;1.7;;
15500;SDS011;7852;52.228;5.990;2022-08-01T05:18:17;3.5;;;1.8;;
15500;SDS011;7852;52.228;5.990;2022-08-01T05:19:17;1.8;;;1.6;;
15500;SDS011;7852;52.228;5.990;2022-08-01T05:20:17;3.8;;;1.7;;
15500;SDS011;7852;52.228;5.990;2022-08-01T05:21:17;2.6;;;1.8;;
15500;SDS011;7852;52.228;5.990;2022-08-01T05:22:17;2.9;;;1.9;;
15500;SDS011;7852;52.228;5.990;2022-08-01T05:23:17;2.6;;;2;;
15500;SDS011;7852;52.228;5.990;2022-08-01T05:24:17;3.9;;;2;;
15500;SDS011;7852;52.228;5.990;2022-08-01T05:25:17;3.6;;;1.9;;
15500;SDS011;7852;52.228;5.990;2022-08-01T05:26:17;2.6;;;1.7;;
15500;SDS011;7852;52.228;5.990;2022-08-01T05:27:17;2.5;;;2;;
15500;SDS011;7852;52.228;5.990;2022-08-01T05:28:17;2.5;;;2;;
15500;SDS011;7852;52.228;5.990;2022-08-01T05:29:17;2.8;;;2.2;;
15500;SDS011;7852;52.228;5.990;2022-08-01T05:30:17;3.5;;;1.9;;
15500;SDS011;7852;52.228;5.990;2022-08-01T05:31:17;3.1;;;1.9;;
15500;SDS011;7852;52.228;5.990;2022-08-01T05:32:18;3.6;;;2.1;;
15500;SDS011;7852;52.228;5.990;2022-08-01T05:33:17;3.1;;;2.2;;
15500;SDS011;7852;52.228;5.990;2022-08-01T05:34:17;4.1;;;2.4;;
15500;SDS011;7852;52.228;5.990;2022-08-01T05:35:17;2.9;;;2.2;;
15500;SDS011;7852;52.228;5.990;2022-08-01T05:36:17;3.6;;;2.5;;
15500;SDS011;7852;52.228;5.990;2022-08-01T05:37:17;2.9;;;2.5;;
15500;SDS011;7852;52.228;5.990;2022-08-01T05:38:17;2.3;;;2.1;;
15500;SDS011;7852;52.228;5.990;2022-08-01T05:39:17;3.9;;;2.6;;
15500;SDS011;7852;52.228;5.990;2022-08-01T05:40:17;5.9;;;2.4;;
15500;SDS011;7852;52.228;5.990;2022-08-01T05:41:17;3.9;;;2.6;;
15500;SDS011;7852;52.228;5.990;2022-08-01T05:42:17;5.1;;;2.7;;
15500;SDS011;7852;52.228;5.990;2022-08-01T05:43:17;3.5;;;2.5;;
15500;SDS011;7852;52.228;5.990;2022-08-01T05:44:17;3.8;;;2.5;;
15500;SDS011;7852;52.228;5.990;2022-08-01T05:45:17;2.7;;;2.3;;
15500;SDS011;7852;52.228;5.990;2022-08-01T05:46:17;3.6;;;2.6;;
15500;SDS011;7852;52.228;5.990;2022-08-01T05:47:17;4.4;;;2.6;;
15500;SDS011;7852;52.228;5.990;2022-08-01T05:48:17;3.8;;;3;;
15500;SDS011;7852;52.228;5.990;2022-08-01T05:49:17;3.9;;;2.7;;
15500;SDS011;7852;52.228;5.990;2022-08-01T05:50:17;4.6;;;3;;
15500;SDS011;7852;52.228;5.990;2022-08-01T05:51:17;4.4;;;2.6;;
15500;SDS011;7852;52.228;5.990;2022-08-01T05:52:17;4.8;;;2.8;;
15500;SDS011;7852;52.228;5.990;2022-08-01T05:53:17;3.3;;;2.7;;
15500;SDS011;7852;52.228;5.990;2022-08-01T05:54:17;3.8;;;2.7;;
15500;SDS011;7852;52.228;5.990;2022-08-01T05:55:17;4.1;;;3.1;;
15500;SDS011;7852;52.228;5.990;2022-08-01T05:56:17;4.3;;;2.9;;
15500;SDS011;7852;52.228;5.990;2022-08-01T05:57:17;4.5;;;2.9;;
15500;SDS011;7852;52.228;5.990;2022-08-01T05:58:17;4.4;;;2.7;;
15500;SDS011;7852;52.228;5.990;2022-08-01T05:59:17;3.9;;;3;;
15500;SDS011;7852;52.228;5.990;2022-08-01T06:00:17;4.1;;;2.6;;
15500;SDS011;7852;52.228;5.990;2022-08-01T06:01:19;6.8;;;2.9;;
15500;SDS011;7852;52.228;5.990;2022-08-01T06:02:17;3.7;;;2.8;;
15500;SDS011;7852;52.228;5.990;2022-08-01T06:03:17;3.5;;;2.9;;
15500;SDS011;7852;52.228;5.990;2022-08-01T06:04:17;5.7;;;3;;
15500;SDS011;7852;52.228;5.990;2022-08-01T06:05:17;4.2;;;3.1;;
15500;SDS011;7852;52.228;5.990;2022-08-01T06:06:17;3.5;;;2.8;;
15500;SDS011;7852;52.228;5.990;2022-08-01T06:07:17;3.9;;;2.9;;
15500;SDS011;7852;52.228;5.990;2022-08-01T06:08:17;4.1;;;3;;
15500;SDS011;7852;52.228;5.990;2022-08-01T06:09:17;4;;;2.9;;
15500;SDS011;7852;52.228;5.990;2022-08-01T06:10:17;3.9;;;2.7;;
15500;SDS011;7852;52.228;5.990;2022-08-01T06:11:17;5;;;2.8;;
15500;SDS011;7852;52.228;5.990;2022-08-01T06:12:17;3.9;;;2.8;;
15500;SDS011;7852;52.228;5.990;2022-08-01T06:13:17;6.4;;;3;;
15500;SDS011;7852;52.228;5.990;2022-08-01T06:14:18;4.2;;;2.9;;
15500;SDS011;7852;52.228;5.990;2022-08-01T06:15:17;5;;;3;;
15500;SDS011;7852;52.228;5.990;2022-08-01T06:16:17;5.1;;;2.8;;
15500;SDS011;7852;52.228;5.990;2022-08-01T06:17:17;7.3;;;3;;
15500;SDS011;7852;52.228;5.990;2022-08-01T06:18:17;4.8;;;2.9;;
15500;SDS011;7852;52.228;5.990;2022-08-01T06:19:17;4.9;;;2.7;;
15500;SDS011;7852;52.228;5.990;2022-08-01T06:20:17;3.7;;;2.6;;
15500;SDS011;7852;52.228;5.990;2022-08-01T06:21:17;4.2;;;3;;
15500;SDS011;7852;52.228;5.990;2022-08-01T06:22:17;4;;;2.8;;